Urb Nuevo San Antonio, Puerto Rico
Current Conditions -  °F | °C
As of 11:50 AM on Monday 24 Nov 2014 (Local Time) from TJBQ Reporting Station
Scattered Clouds Scattered Clouds  
Wind Chill: 86°   Ceiling: Unl
Heat Index: 93°   Visibility: 10mi
Dew Point: 73°   Wind: 21mph
Humidity: 66%   Direction: 80°E
Pressure: 30.05"   Gusts: 30mph
Location:  18.4943°N, 67.0987°W
Report Text: TJBQ 241550Z 08018G26KT 10SM SCT026 SCT033 30/23 A3005 RMK RWY08 ATIS F
Loading
Personal Weather Stations






























Interactive Weather Map New forecast layout! Learn more

10-Day Weather Forecast

Advertisements
Track Severe Weather on mobile